createdAt,value
2022-10-05T00:02:03.355Z,58.67
2022-10-05T00:04:30.429Z,57.97
2022-10-05T00:07:01.410Z,58.92
2022-10-05T00:09:28.721Z,59.16
2022-10-05T00:11:56.342Z,59.43
2022-10-05T00:14:33.469Z,59.81
2022-10-05T00:17:01.224Z,58.21
2022-10-05T00:19:32.703Z,58.29
2022-10-05T00:21:59.907Z,59.25
2022-10-05T00:24:26.954Z,58.79
2022-10-05T00:26:57.785Z,58.76
2022-10-05T00:29:25.185Z,58.86
2022-10-05T00:31:53.010Z,58.51
2022-10-05T00:34:19.830Z,57.54
2022-10-05T00:36:46.852Z,58.17
2022-10-05T00:39:14.070Z,57.31
2022-10-05T00:41:59.639Z,57.91
2022-10-05T00:44:33.139Z,57.59
2022-10-05T00:47:05.013Z,57.95
2022-10-05T00:49:44.445Z,57.33
2022-10-05T00:52:11.187Z,57.70
2022-10-05T00:54:45.365Z,57.95
2022-10-05T00:57:17.987Z,58.07
2022-10-05T00:59:51.795Z,58.59
2022-10-05T01:02:27.575Z,58.00
2022-10-05T01:04:57.760Z,57.45
2022-10-05T01:07:30.651Z,57.59
2022-10-05T01:10:16.473Z,57.11
2022-10-05T01:12:50.900Z,57.79
2022-10-05T01:15:21.098Z,57.34
2022-10-05T01:18:06.583Z,58.21
2022-10-05T01:20:44.722Z,57.81
2022-10-05T01:23:30.469Z,57.40
2022-10-05T01:26:06.329Z,57.97
2022-10-05T01:28:38.033Z,58.20
2022-10-05T01:31:07.884Z,58.12
2022-10-05T01:33:55.587Z,58.96
2022-10-05T01:36:31.142Z,58.52
2022-10-05T01:39:13.328Z,58.28
2022-10-05T01:42:06.856Z,57.84
2022-10-05T01:44:37.163Z,58.56
2022-10-05T01:47:08.050Z,58.79
2022-10-05T01:49:41.277Z,58.81
2022-10-05T01:52:21.193Z,59.04
2022-10-05T01:54:55.307Z,58.78
2022-10-05T01:57:26.745Z,58.93
2022-10-05T02:00:05.612Z,59.04
2022-10-05T02:03:06.697Z,58.60
2022-10-05T02:05:54.283Z,57.96
2022-10-05T02:08:38.309Z,57.58
2022-10-05T02:11:10.413Z,57.77
2022-10-05T02:13:44.176Z,58.31
2022-10-05T02:16:14.570Z,58.26
2022-10-05T02:18:51.265Z,58.17
2022-10-05T02:21:19.139Z,58.36
2022-10-05T02:23:45.992Z,58.41
2022-10-05T02:26:12.740Z,59.70
2022-10-05T02:28:42.072Z,61.66
2022-10-05T02:31:08.838Z,60.05
2022-10-05T02:33:35.795Z,59.93
2022-10-05T02:36:18.569Z,60.00
2022-10-05T02:39:04.933Z,59.56
2022-10-05T02:41:31.918Z,59.68
2022-10-05T02:44:17.548Z,58.68
2022-10-05T02:47:03.491Z,58.94
2022-10-05T02:49:48.087Z,58.95
2022-10-05T02:52:18.642Z,59.00
2022-10-05T02:55:04.147Z,58.42
2022-10-05T02:57:33.760Z,58.65
2022-10-05T03:00:04.227Z,58.33
2022-10-05T03:02:37.291Z,58.29
2022-10-05T03:05:22.848Z,58.26
2022-10-05T03:07:58.552Z,58.42
2022-10-05T03:10:27.224Z,57.88
2022-10-05T03:12:58.009Z,58.46
2022-10-05T03:15:31.251Z,58.75
2022-10-05T03:18:20.604Z,58.50
2022-10-05T03:20:49.886Z,58.88
2022-10-05T03:23:41.797Z,58.58
2022-10-05T03:26:27.408Z,57.91
2022-10-05T03:29:08.959Z,57.80
2022-10-05T03:31:38.966Z,58.80
2022-10-05T03:34:06.937Z,57.04
2022-10-05T03:36:39.204Z,58.20
2022-10-05T03:39:25.386Z,58.12
2022-10-05T03:42:05.298Z,57.29
2022-10-05T03:44:32.302Z,57.91
2022-10-05T03:47:02.365Z,58.01
2022-10-05T03:49:32.306Z,57.46
2022-10-05T03:52:04.583Z,57.33
2022-10-05T03:54:54.920Z,57.49
2022-10-05T03:57:23.638Z,58.01
2022-10-05T04:00:05.289Z,57.25
2022-10-05T04:02:42.968Z,57.35
2022-10-05T04:05:10.574Z,57.82
2022-10-05T04:07:42.737Z,57.35
2022-10-05T04:10:14.882Z,57.71
2022-10-05T04:12:43.169Z,57.65
2022-10-05T04:15:19.124Z,57.29
2022-10-05T04:17:48.987Z,58.03
2022-10-05T04:20:18.126Z,57.74
2022-10-05T04:22:48.069Z,58.74
2022-10-05T04:25:18.575Z,58.40
2022-10-05T04:27:48.050Z,57.79
2022-10-05T04:30:16.813Z,57.57
2022-10-05T04:32:44.871Z,57.64
2022-10-05T04:35:31.200Z,57.39
2022-10-05T04:38:17.494Z,57.09
2022-10-05T04:41:01.027Z,57.94
2022-10-05T04:43:48.323Z,57.95
2022-10-05T04:46:33.511Z,58.39
2022-10-05T04:49:03.534Z,57.46
2022-10-05T04:51:51.395Z,57.51
2022-10-05T04:54:45.366Z,56.84
2022-10-05T04:57:14.531Z,57.59
2022-10-05T04:59:45.724Z,58.45
2022-10-05T05:02:12.411Z,57.94
2022-10-05T05:04:39.183Z,57.52
2022-10-05T05:07:24.905Z,57.78
2022-10-05T05:09:58.932Z,57.80
2022-10-05T05:12:25.995Z,57.74
2022-10-05T05:14:59.839Z,57.04
2022-10-05T05:17:32.927Z,58.30
2022-10-05T05:19:59.765Z,58.55
2022-10-05T05:22:35.680Z,57.73
2022-10-05T05:25:17.811Z,58.44
2022-10-05T05:28:04.259Z,59.54
2022-10-05T05:30:36.058Z,58.87
2022-10-05T05:33:06.023Z,59.01
2022-10-05T05:35:42.089Z,58.84
2022-10-05T05:38:29.049Z,58.68
2022-10-05T05:40:56.012Z,59.04
2022-10-05T05:43:38.527Z,58.96
2022-10-05T05:46:06.514Z,60.24
2022-10-05T05:48:38.514Z,59.48
2022-10-05T05:51:18.174Z,59.26
2022-10-05T05:53:46.341Z,59.90
2022-10-05T05:56:13.932Z,59.70
2022-10-05T05:58:44.009Z,59.20
2022-10-05T06:01:31.749Z,60.36
2022-10-05T06:04:10.056Z,60.41
2022-10-05T06:06:38.473Z,60.49
2022-10-05T06:09:17.144Z,59.76
2022-10-05T06:11:52.119Z,61.30
2022-10-05T06:14:23.160Z,60.67
2022-10-05T06:16:51.348Z,60.42
2022-10-05T06:19:18.906Z,60.21
2022-10-05T06:21:52.713Z,60.84
2022-10-05T06:24:29.149Z,60.81
2022-10-05T06:27:15.207Z,60.71
2022-10-05T06:29:58.145Z,60.43
2022-10-05T06:32:55.026Z,61.98
2022-10-05T06:35:31.084Z,61.48
2022-10-05T06:38:01.356Z,61.01
2022-10-05T06:40:47.132Z,60.84
2022-10-05T06:43:17.533Z,60.61
2022-10-05T06:46:12.977Z,60.49
2022-10-05T06:48:49.281Z,60.61
2022-10-05T06:51:20.025Z,60.19
2022-10-05T06:53:48.983Z,60.58
2022-10-05T06:56:17.623Z,60.13
2022-10-05T06:58:45.766Z,59.02
2022-10-05T07:01:32.439Z,58.53
2022-10-05T07:04:18.096Z,57.47
2022-10-05T07:06:45.444Z,55.67
2022-10-05T07:09:44.888Z,54.06
2022-10-05T07:12:26.159Z,52.85
2022-10-05T07:14:55.914Z,51.67
2022-10-05T07:17:29.390Z,51.36
2022-10-05T07:19:58.005Z,52.03
2022-10-05T07:22:43.897Z,51.31
2022-10-05T07:25:14.807Z,51.20
2022-10-05T07:27:51.102Z,51.34
2022-10-05T07:30:18.808Z,50.14
2022-10-05T07:32:46.147Z,50.02
2022-10-05T07:35:37.609Z,49.64
2022-10-05T07:38:07.933Z,48.91
2022-10-05T07:40:50.617Z,49.02
2022-10-05T07:44:10.161Z,47.54
2022-10-05T07:46:40.389Z,47.30
2022-10-05T07:49:15.671Z,46.62
2022-10-05T07:51:45.408Z,46.34
2022-10-05T07:54:40.500Z,46.72
2022-10-05T07:57:26.111Z,46.74
2022-10-05T07:59:56.969Z,47.03
2022-10-05T08:02:24.360Z,46.62
2022-10-05T08:05:11.736Z,46.31
2022-10-05T08:07:38.402Z,45.74
2022-10-05T08:10:23.757Z,46.17
2022-10-05T08:12:53.543Z,46.32
2022-10-05T08:15:21.867Z,46.09
2022-10-05T08:17:49.699Z,47.15
2022-10-05T08:20:38.862Z,46.42
2022-10-05T08:23:24.488Z,47.72
2022-10-05T08:26:09.759Z,47.62
2022-10-05T08:28:41.714Z,46.58
2022-10-05T08:31:08.423Z,46.08
2022-10-05T08:33:36.655Z,46.39
2022-10-05T08:36:05.784Z,44.93
2022-10-05T08:38:32.915Z,44.53
2022-10-05T08:40:59.583Z,45.13
2022-10-05T08:43:45.657Z,45.50
2022-10-05T08:46:31.220Z,42.52
2022-10-05T08:49:09.879Z,44.83
2022-10-05T08:51:42.764Z,44.81
2022-10-05T08:54:09.673Z,45.15
2022-10-05T08:56:51.387Z,43.54
2022-10-05T08:59:24.518Z,44.67
2022-10-05T09:02:00.462Z,44.62
2022-10-05T09:04:39.639Z,45.47
2022-10-05T09:07:25.462Z,45.79
2022-10-05T09:10:11.184Z,46.97
2022-10-05T09:12:50.149Z,46.60
2022-10-05T09:15:26.410Z,45.62
2022-10-05T09:18:02.626Z,46.27
2022-10-05T09:20:32.941Z,46.21
2022-10-05T09:22:59.666Z,45.27
2022-10-05T09:25:35.586Z,44.33
2022-10-05T09:28:05.282Z,43.57
2022-10-05T09:30:47.315Z,43.92
2022-10-05T09:33:27.062Z,44.27
2022-10-05T09:35:58.240Z,45.42
2022-10-05T09:38:47.560Z,45.14
2022-10-05T09:41:33.109Z,43.26
2022-10-05T09:44:19.067Z,45.48
2022-10-05T09:46:48.391Z,43.42
2022-10-05T09:49:34.632Z,42.76
2022-10-05T09:52:01.463Z,42.98
2022-10-05T09:54:37.587Z,44.56
2022-10-05T09:57:22.967Z,44.08
2022-10-05T10:00:09.423Z,43.85
2022-10-05T10:02:47.965Z,42.90
2022-10-05T10:05:27.475Z,44.56
2022-10-05T10:07:59.025Z,42.96
2022-10-05T10:10:32.002Z,44.55
2022-10-05T10:13:01.389Z,44.33
2022-10-05T10:15:35.061Z,44.96
2022-10-05T10:18:10.958Z,44.49
2022-10-05T10:20:37.875Z,44.97
2022-10-05T10:23:20.872Z,44.18
2022-10-05T10:25:53.961Z,44.81
2022-10-05T10:28:35.801Z,44.26
2022-10-05T10:31:08.915Z,43.38
2022-10-05T10:33:50.594Z,43.33
2022-10-05T10:36:26.617Z,42.76
2022-10-05T10:38:54.727Z,44.11
2022-10-05T10:41:40.672Z,43.51
2022-10-05T10:44:13.196Z,43.67
2022-10-05T10:46:58.858Z,44.82
2022-10-05T10:49:51.297Z,44.61
2022-10-05T10:52:19.449Z,44.10
2022-10-05T10:55:01.566Z,43.08
2022-10-05T10:57:37.549Z,44.72
2022-10-05T11:00:11.224Z,44.24
2022-10-05T11:02:57.182Z,46.32
2022-10-05T11:05:36.383Z,47.03
2022-10-05T11:08:21.868Z,44.97
2022-10-05T11:10:54.358Z,46.29
2022-10-05T11:13:24.913Z,46.77
2022-10-05T11:15:58.757Z,46.30
2022-10-05T11:18:45.342Z,47.76
2022-10-05T11:21:26.153Z,45.05
2022-10-05T11:24:12.556Z,45.13
2022-10-05T11:26:46.412Z,44.70
2022-10-05T11:29:32.606Z,44.44
2022-10-05T11:32:17.962Z,45.59
2022-10-05T11:34:50.767Z,45.12
2022-10-05T11:37:26.157Z,43.30
2022-10-05T11:40:11.948Z,45.29
2022-10-05T11:42:53.735Z,46.15
2022-10-05T11:45:25.147Z,45.17
2022-10-05T11:47:58.280Z,45.39
2022-10-05T11:50:32.522Z,43.76
2022-10-05T11:53:05.791Z,43.96
2022-10-05T11:55:37.593Z,43.73
2022-10-05T11:58:12.979Z,42.04
2022-10-05T12:00:40.619Z,44.74
2022-10-05T12:03:17.202Z,43.95
2022-10-05T12:05:50.182Z,43.07
2022-10-05T12:08:36.120Z,40.77
2022-10-05T12:13:38.963Z,40.17
2022-10-05T12:16:23.659Z,40.57
2022-10-05T12:18:51.058Z,40.79
2022-10-05T12:21:22.816Z,40.42
2022-10-05T12:23:49.501Z,38.79
2022-10-05T12:26:16.960Z,41.14
2022-10-05T12:29:13.177Z,40.60
2022-10-05T12:31:49.365Z,39.27
2022-10-05T12:34:42.535Z,41.54
2022-10-05T12:37:36.313Z,40.27
2022-10-05T12:40:06.413Z,38.70
2022-10-05T12:42:42.164Z,39.33
2022-10-05T12:45:20.895Z,39.12
2022-10-05T12:47:55.551Z,38.92
2022-10-05T12:50:22.296Z,39.51
2022-10-05T12:52:59.111Z,41.97
2022-10-05T12:55:42.656Z,39.34
2022-10-05T12:58:21.501Z,40.22
2022-10-05T13:00:52.088Z,39.62
2022-10-05T13:03:26.538Z,39.16
2022-10-05T13:06:00.311Z,40.86
2022-10-05T13:08:39.095Z,38.98
2022-10-05T13:11:15.037Z,38.21
2022-10-05T13:14:03.294Z,41.14
2022-10-05T13:16:40.350Z,41.18
2022-10-05T13:19:26.995Z,41.05
2022-10-05T13:22:12.763Z,41.30
2022-10-05T13:24:53.328Z,39.93
2022-10-05T13:27:36.466Z,40.90
2022-10-05T13:30:03.979Z,40.02
2022-10-05T13:32:34.800Z,42.33
2022-10-05T13:35:01.790Z,40.59
2022-10-05T13:37:32.283Z,41.43
2022-10-05T13:40:12.788Z,41.68
2022-10-05T13:42:48.464Z,41.12
2022-10-05T13:45:27.491Z,40.28
2022-10-05T13:47:55.229Z,40.23
2022-10-05T13:50:24.019Z,42.30
2022-10-05T13:53:00.897Z,42.03
2022-10-05T13:55:48.042Z,39.55
2022-10-05T13:58:17.742Z,40.26
2022-10-05T14:00:53.362Z,40.29
2022-10-05T14:03:28.437Z,40.45
2022-10-05T14:06:00.012Z,41.98
2022-10-05T14:08:32.849Z,41.81
2022-10-05T14:10:59.599Z,42.53
2022-10-05T14:13:27.784Z,41.91
2022-10-05T14:16:04.657Z,42.39
2022-10-05T14:18:32.930Z,41.40
2022-10-05T14:21:09.102Z,40.79
2022-10-05T14:23:35.871Z,40.72
2022-10-05T14:26:04.493Z,41.71
2022-10-05T14:28:32.952Z,41.38
2022-10-05T14:30:59.635Z,40.65
2022-10-05T14:33:29.241Z,41.68
2022-10-05T14:35:56.951Z,41.23
2022-10-05T14:38:29.473Z,40.65
2022-10-05T14:41:12.413Z,42.82
2022-10-05T14:43:39.363Z,42.51
2022-10-05T14:46:23.168Z,41.77
2022-10-05T14:49:12.669Z,42.81
2022-10-05T14:51:39.681Z,41.87
2022-10-05T14:54:25.237Z,42.47
2022-10-05T14:57:13.956Z,42.58
2022-10-05T14:59:47.364Z,43.93
2022-10-05T15:02:31.591Z,44.22
2022-10-05T15:05:17.028Z,45.18
2022-10-05T15:07:44.618Z,44.47
2022-10-05T15:10:14.359Z,44.56
2022-10-05T15:12:44.008Z,45.09
2022-10-05T15:15:17.072Z,45.18
2022-10-05T15:17:47.572Z,45.03
2022-10-05T15:20:25.808Z,44.93
2022-10-05T15:23:00.429Z,45.86
2022-10-05T15:25:30.606Z,44.58
2022-10-05T15:28:09.662Z,45.31
2022-10-05T15:30:37.902Z,45.38
2022-10-05T15:33:07.554Z,45.66
2022-10-05T15:35:37.312Z,44.93
2022-10-05T15:38:21.219Z,45.65
2022-10-05T15:41:06.825Z,45.90
2022-10-05T15:43:38.231Z,47.33
2022-10-05T15:46:19.094Z,47.00
2022-10-05T15:49:08.485Z,47.23
2022-10-05T15:51:53.933Z,47.15
2022-10-05T15:54:39.763Z,46.92
2022-10-05T15:57:08.765Z,47.09
2022-10-05T15:59:38.682Z,47.05
2022-10-05T16:02:07.210Z,47.01
2022-10-05T16:04:37.245Z,47.01
2022-10-05T16:07:22.562Z,47.09
2022-10-05T16:09:53.786Z,46.69
2022-10-05T16:12:24.876Z,47.28
2022-10-05T16:14:54.603Z,47.21
2022-10-05T16:17:27.185Z,47.93
2022-10-05T16:20:08.073Z,48.42
2022-10-05T16:22:59.727Z,48.71
2022-10-05T16:25:30.396Z,49.52
2022-10-05T16:27:59.524Z,50.04
2022-10-05T16:30:29.267Z,50.91
2022-10-05T16:32:56.008Z,51.35
2022-10-05T16:35:25.972Z,51.41
2022-10-05T16:38:25.431Z,51.61
2022-10-05T16:41:01.994Z,51.86
2022-10-05T16:43:32.381Z,51.71
2022-10-05T16:46:02.204Z,51.32
2022-10-05T16:48:30.705Z,51.40
2022-10-05T16:51:07.658Z,51.82
2022-10-05T16:53:42.529Z,52.49
2022-10-05T16:56:11.293Z,52.76
2022-10-05T16:58:47.631Z,52.85
2022-10-05T17:01:14.332Z,53.08
2022-10-05T17:03:45.822Z,53.38
2022-10-05T17:06:18.692Z,53.22
2022-10-05T17:08:45.705Z,53.56
2022-10-05T17:11:21.302Z,53.93
2022-10-05T17:13:55.161Z,54.21
2022-10-05T17:16:28.074Z,54.14
2022-10-05T17:19:33.077Z,54.89
2022-10-05T17:22:00.839Z,55.00
2022-10-05T17:24:42.156Z,55.66
2022-10-05T17:27:23.604Z,54.97
2022-10-05T17:29:54.291Z,54.63
2022-10-05T17:32:33.803Z,55.40
2022-10-05T17:35:01.000Z,55.27
2022-10-05T17:37:27.657Z,55.68
2022-10-05T17:39:55.198Z,55.24
2022-10-05T17:42:32.891Z,55.00
2022-10-05T17:45:14.703Z,55.02
2022-10-05T17:47:54.656Z,55.43
2022-10-05T17:51:00.812Z,55.21
2022-10-05T17:53:52.529Z,56.05
2022-10-05T17:56:22.742Z,55.91
2022-10-05T17:58:54.603Z,56.25
2022-10-05T18:01:31.700Z,56.20
2022-10-05T18:04:21.793Z,56.45
2022-10-05T18:06:52.736Z,56.08
2022-10-05T18:09:22.994Z,56.21
2022-10-05T18:12:08.999Z,56.09
2022-10-05T18:14:57.354Z,56.33
2022-10-05T18:17:45.111Z,56.33
2022-10-05T18:20:15.353Z,55.96
2022-10-05T18:22:46.655Z,56.42
2022-10-05T18:25:22.978Z,56.21
2022-10-05T18:28:00.662Z,56.39
2022-10-05T18:30:29.758Z,56.69
2022-10-05T18:32:57.082Z,56.76
2022-10-05T18:35:47.705Z,56.54
2022-10-05T18:38:33.598Z,56.93
2022-10-05T18:41:01.241Z,56.26
2022-10-05T18:43:46.494Z,57.00
2022-10-05T18:46:32.263Z,56.56
2022-10-05T18:49:02.378Z,56.45
2022-10-05T18:51:29.215Z,56.53
2022-10-05T18:54:08.195Z,56.30
2022-10-05T18:56:44.544Z,56.47
2022-10-05T18:59:27.268Z,57.14
2022-10-05T19:01:57.616Z,56.70
2022-10-05T19:04:29.014Z,56.20
2022-10-05T19:07:03.168Z,56.83
2022-10-05T19:09:51.295Z,56.60
2022-10-05T19:12:22.865Z,56.24
2022-10-05T19:14:53.924Z,56.27
2022-10-05T19:17:24.739Z,56.35
2022-10-05T19:20:12.740Z,56.14
2022-10-05T19:22:48.678Z,56.19
2022-10-05T19:25:34.956Z,56.70
2022-10-05T19:28:02.587Z,56.26
2022-10-05T19:30:37.552Z,56.12
2022-10-05T19:33:33.578Z,56.61
2022-10-05T19:36:19.260Z,56.54
2022-10-05T19:38:58.737Z,56.58
2022-10-05T19:41:27.325Z,57.11
2022-10-05T19:44:08.562Z,56.75
2022-10-05T19:46:49.818Z,57.48
2022-10-05T19:49:34.839Z,57.38
2022-10-05T19:52:02.416Z,57.24
2022-10-05T19:54:30.144Z,57.09
2022-10-05T19:56:57.873Z,56.86
2022-10-05T19:59:31.576Z,56.69
2022-10-05T20:01:58.855Z,56.80
2022-10-05T20:04:31.761Z,57.17
2022-10-05T20:06:59.613Z,56.79
2022-10-05T20:09:26.640Z,57.01
2022-10-05T20:11:53.500Z,56.95
2022-10-05T20:14:21.282Z,57.14
2022-10-05T20:17:07.024Z,57.18
2022-10-05T20:19:36.401Z,57.35
2022-10-05T20:22:22.676Z,57.53
2022-10-05T20:24:50.760Z,57.42
2022-10-05T20:27:38.088Z,57.48
2022-10-05T20:30:05.362Z,57.26
2022-10-05T20:32:33.066Z,56.97
2022-10-05T20:34:59.818Z,57.91
2022-10-05T20:37:26.525Z,57.55
2022-10-05T20:39:53.477Z,58.26
2022-10-05T20:42:23.013Z,57.53
2022-10-05T20:44:54.327Z,57.88
2022-10-05T20:47:23.806Z,57.88
2022-10-05T20:49:50.452Z,57.54
2022-10-05T20:52:18.352Z,57.95
2022-10-05T20:57:13.348Z,57.91
2022-10-05T20:59:40.141Z,58.01
2022-10-05T21:02:07.089Z,57.80
2022-10-05T21:04:42.857Z,57.98
2022-10-05T21:07:10.101Z,58.13
2022-10-05T21:09:38.554Z,57.96
2022-10-05T21:12:05.397Z,57.87
2022-10-05T21:14:34.472Z,57.61
2022-10-05T21:17:02.229Z,57.70
2022-10-05T21:19:29.594Z,58.24
2022-10-05T21:21:59.154Z,58.08
2022-10-05T21:24:26.267Z,58.99
2022-10-05T21:26:57.744Z,58.18
2022-10-05T21:29:24.783Z,58.80
2022-10-05T21:31:51.684Z,58.96
2022-10-05T21:34:18.469Z,58.32
2022-10-05T21:36:45.635Z,58.73
2022-10-05T21:39:12.400Z,58.36
2022-10-05T21:41:39.136Z,57.56
2022-10-05T21:44:06.763Z,57.74
2022-10-05T21:46:34.963Z,57.98
2022-10-05T21:49:01.823Z,57.90
2022-10-05T21:51:28.885Z,58.57
2022-10-05T21:53:56.869Z,57.93
2022-10-05T21:56:24.718Z,57.84
2022-10-05T21:58:51.986Z,57.33
2022-10-05T22:01:22.403Z,57.49
2022-10-05T22:03:49.766Z,58.04
2022-10-05T22:06:16.496Z,58.29
2022-10-05T22:08:43.260Z,57.88
2022-10-05T22:11:11.791Z,57.55
2022-10-05T22:13:43.078Z,58.02
2022-10-05T22:16:10.255Z,58.31
2022-10-05T22:18:37.242Z,58.38
2022-10-05T22:21:04.775Z,57.67
2022-10-05T22:23:33.679Z,58.36
2022-10-05T22:26:00.546Z,58.15
2022-10-05T22:28:27.788Z,58.27
2022-10-05T22:30:55.165Z,58.75
2022-10-05T22:33:21.916Z,58.04
2022-10-05T22:35:48.663Z,58.77
2022-10-05T22:38:15.703Z,58.06
2022-10-05T22:40:42.591Z,58.37
2022-10-05T22:43:09.311Z,58.56
2022-10-05T22:45:36.516Z,58.86
2022-10-05T22:48:03.871Z,58.49
2022-10-05T22:50:31.029Z,58.58
2022-10-05T22:52:58.049Z,58.96
2022-10-05T22:55:25.080Z,59.20
2022-10-05T22:57:51.840Z,58.70
2022-10-05T23:00:19.406Z,58.78
2022-10-05T23:02:49.118Z,58.76
2022-10-05T23:05:17.165Z,59.20
2022-10-05T23:07:44.787Z,59.41
2022-10-05T23:10:12.253Z,59.46
2022-10-05T23:12:39.095Z,59.25
2022-10-05T23:15:06.591Z,58.99
2022-10-05T23:17:35.755Z,59.64
2022-10-05T23:20:03.210Z,58.80
2022-10-05T23:22:30.476Z,59.07
2022-10-05T23:24:57.193Z,59.49
2022-10-05T23:27:23.989Z,58.82
2022-10-05T23:29:51.033Z,60.43
2022-10-05T23:32:17.775Z,59.91
2022-10-05T23:34:44.613Z,59.67
2022-10-05T23:37:11.765Z,59.08
2022-10-05T23:39:38.705Z,59.17
2022-10-05T23:42:05.979Z,59.92
2022-10-05T23:44:33.027Z,59.60
2022-10-05T23:46:59.883Z,59.27
2022-10-05T23:49:26.684Z,59.83
2022-10-05T23:51:53.832Z,59.59
2022-10-05T23:54:20.570Z,60.06
2022-10-05T23:56:47.270Z,59.90
2022-10-05T23:59:14.311Z,61.07
